Time;durP1;ratioP1;P1;durP2;ratioP2;P2;SDS_P1;SDS_P2;PMS_P1;PMS_P2;Temp;Humidity;BMP_temperature;BMP_pressure;BME280_temperature;BME280_humidity;BME280_pressure;Samples;Min_cycle;Max_cycle;Signal;HPM_P1;HPM_P2
2023/03/20 00:02:21;;;;;;;0.30;0.30;;;;;;;14.53;64.44;101944.00;5010562;28;20034;-69
2023/03/20 00:04:47;;;;;;;0.30;0.30;;;;;;;14.87;64.16;101937.19;5010323;28;20030;-69
2023/03/20 00:07:12;;;;;;;0.30;0.30;;;;;;;14.55;64.45;101939.19;5011084;28;20481;-70
2023/03/20 00:09:38;;;;;;;0.20;0.20;;;;;;;15.44;61.29;101942.06;5010684;28;20520;-69
2023/03/20 00:12:04;;;;;;;0.20;0.20;;;;;;;15.26;61.76;101954.78;5010642;28;20496;-70
2023/03/20 00:14:30;;;;;;;0.30;0.30;;;;;;;14.69;63.24;101956.94;5010678;28;20195;-69
2023/03/20 00:16:56;;;;;;;0.38;0.38;;;;;;;14.94;62.18;101948.72;5010111;28;20049;-68
2023/03/20 00:19:24;;;;;;;0.30;0.30;;;;;;;15.39;60.74;101955.44;5010697;28;20490;-70
2023/03/20 00:21:51;;;;;;;0.30;0.30;;;;;;;15.21;60.92;101949.25;5010743;28;20517;-70
2023/03/20 00:24:17;;;;;;;0.30;0.30;;;;;;;14.76;62.30;101946.88;5010934;28;20030;-70
2023/03/20 00:26:44;;;;;;;0.30;0.30;;;;;;;15.80;58.90;101941.91;5010651;28;20065;-70
2023/03/20 00:29:21;;;;;;;0.13;0.13;;;;;;;14.94;61.60;101944.16;5010566;28;20049;-69
2023/03/20 00:31:46;;;;;;;0.30;0.30;;;;;;;15.55;59.95;101952.09;5009409;28;20034;-69
2023/03/20 00:34:14;;;;;;;0.20;0.20;;;;;;;15.59;60.21;101947.03;5010353;28;20034;-69
2023/03/20 00:36:39;;;;;;;0.30;0.30;;;;;;;14.81;62.30;101955.16;5010446;28;20038;-69
2023/03/20 00:39:05;;;;;;;0.22;0.22;;;;;;;14.52;63.74;101955.06;5010472;28;20040;-69
2023/03/20 00:41:37;;;;;;;0.30;0.30;;;;;;;14.49;64.81;101958.19;5010292;28;20046;-69
2023/03/20 00:44:20;;;;;;;0.32;0.32;;;;;;;14.74;63.01;101962.50;5008988;28;20076;-70
2023/03/20 00:46:52;;;;;;;0.30;0.30;;;;;;;14.83;62.99;101963.88;5010431;28;20038;-70
2023/03/20 00:49:21;;;;;;;0.20;0.20;;;;;;;14.57;64.20;101960.59;5010745;28;20022;-69
2023/03/20 00:51:47;;;;;;;0.35;0.35;;;;;;;14.91;62.35;101960.03;5010241;28;20034;-70
2023/03/20 00:54:14;;;;;;;0.20;0.20;;;;;;;14.75;62.68;101961.47;5010055;28;20529;-69
2023/03/20 00:56:49;;;;;;;0.20;0.20;;;;;;;14.76;62.79;101956.88;5010518;28;20107;-69
2023/03/20 00:59:19;;;;;;;0.30;0.30;;;;;;;15.30;61.68;101964.09;5010377;28;20030;-69
2023/03/20 01:01:45;;;;;;;0.20;0.20;;;;;;;14.73;62.68;101962.72;5010506;28;20038;-72
2023/03/20 01:04:12;;;;;;;0.40;0.40;;;;;;;14.53;63.35;101960.22;5010450;28;20384;-69
2023/03/20 01:06:38;;;;;;;0.20;0.20;;;;;;;14.26;64.08;101966.91;5010272;28;20129;-69
2023/03/20 01:09:04;;;;;;;0.30;0.30;;;;;;;14.74;62.71;101977.94;5010239;28;20120;-70
2023/03/20 01:11:30;;;;;;;0.22;0.22;;;;;;;14.10;64.53;102000.75;5010623;28;20512;-69
2023/03/20 01:13:56;;;;;;;0.20;0.20;;;;;;;13.99;65.69;101990.63;5010039;28;20531;-69
2023/03/20 01:16:23;;;;;;;0.20;0.20;;;;;;;14.38;63.92;101994.09;5010487;28;20022;-70
2023/03/20 01:18:49;;;;;;;0.30;0.30;;;;;;;14.32;64.09;102005.78;5012897;28;20049;-69
2023/03/20 01:21:16;;;;;;;0.20;0.20;;;;;;;14.52;63.81;102001.88;5013609;28;20121;-70
2023/03/20 01:23:41;;;;;;;0.30;0.30;;;;;;;14.96;61.23;102014.28;5013570;28;20038;-69
2023/03/20 01:26:17;;;;;;;0.40;0.40;;;;;;;15.26;61.18;102026.03;5013753;28;20045;-69
2023/03/20 01:28:43;;;;;;;0.30;0.30;;;;;;;14.53;62.67;102008.09;5013309;28;20060;-69
2023/03/20 01:31:08;;;;;;;0.28;0.28;;;;;;;14.50;63.15;102003.97;5013947;28;20018;-70
2023/03/20 01:33:33;;;;;;;0.20;0.20;;;;;;;14.85;61.99;102002.34;5012781;28;20041;-69
2023/03/20 01:35:59;;;;;;;0.30;0.30;;;;;;;14.77;62.29;102007.22;5013178;28;20055;-69
2023/03/20 01:38:26;;;;;;;0.20;0.20;;;;;;;14.10;63.80;102014.25;5013191;28;20040;-70
2023/03/20 01:40:57;;;;;;;0.17;0.17;;;;;;;14.04;64.29;102003.50;5013348;28;20096;-70
2023/03/20 01:43:25;;;;;;;0.20;0.20;;;;;;;14.40;63.36;102000.09;5013611;28;20551;-70
2023/03/20 01:45:56;;;;;;;0.50;0.50;;;;;;;14.17;63.71;102008.78;5012862;28;20040;-69
2023/03/20 01:48:23;;;;;;;;;;;;;;;14.87;61.74;102007.53;5013502;28;20041;-69
2023/03/20 01:50:48;;;;;;;0.20;0.20;;;;;;;14.56;61.70;102005.78;5012998;28;19913;-69
2023/03/20 01:53:19;;;;;;;0.38;0.38;;;;;;;14.82;61.14;102004.66;5012972;28;20060;-69
2023/03/20 01:55:46;;;;;;;0.30;0.30;;;;;;;14.81;61.23;102001.16;5012381;28;20038;-70
2023/03/20 01:58:20;;;;;;;0.30;0.30;;;;;;;14.33;63.26;102005.56;5013358;28;20034;-69
2023/03/20 02:00:47;;;;;;;0.35;0.35;;;;;;;14.52;62.50;102012.69;5012604;28;20057;-69
2023/03/20 02:03:15;;;;;;;0.30;0.30;;;;;;;14.83;61.09;102000.91;5012690;28;20034;-70
2023/03/20 02:05:42;;;;;;;0.22;0.22;;;;;;;14.26;62.39;102004.78;5012867;28;20095;-70
2023/03/20 02:08:26;;;;;;;0.40;0.40;;;;;;;13.79;64.93;102005.34;5012870;28;20041;-70
2023/03/20 02:10:52;;;;;;;0.28;0.28;;;;;;;14.02;64.26;101989.38;5012550;28;20049;-68
2023/03/20 02:13:18;;;;;;;0.25;0.25;;;;;;;14.58;61.60;101964.97;5013040;28;20212;-69
2023/03/20 02:15:56;;;;;;;0.30;0.30;;;;;;;14.57;61.88;101974.13;5012555;28;20045;-70
2023/03/20 02:18:21;;;;;;;0.25;0.25;;;;;;;14.79;60.84;101970.78;5012272;28;20121;-70
2023/03/20 02:21:29;;;;;;;0.30;0.30;;;;;;;14.52;62.30;101982.94;5012612;28;20529;-69
2023/03/20 02:23:57;;;;;;;0.20;0.20;;;;;;;14.35;62.62;101971.03;4970555;28;20494;-69
2023/03/20 02:27:04;;;;;;;0.20;0.20;;;;;;;14.52;61.93;101947.78;4970820;28;20046;-69
2023/03/20 02:29:38;;;;;;;0.30;0.30;;;;;;;14.90;59.80;101936.72;4970009;28;20087;-69
2023/03/20 02:32:14;;;;;;;0.20;0.20;;;;;;;14.78;61.60;101943.94;4970584;28;20086;-69
2023/03/20 02:35:27;;;;;;;0.22;0.22;;;;;;;14.84;61.01;101929.50;4970094;28;20042;-69
2023/03/20 02:38:00;;;;;;;0.40;0.40;;;;;;;14.86;61.18;101936.34;4951236;29;20522;-70
2023/03/20 02:40:37;;;;;;;0.20;0.20;;;;;;;14.87;60.87;101938.00;4951519;29;20055;-69
2023/03/20 02:43:19;;;;;;;0.38;0.38;;;;;;;14.81;60.91;101932.66;4970044;28;20061;-69
2023/03/20 02:45:59;;;;;;;0.20;0.20;;;;;;;14.78;61.28;101947.47;4970118;28;20474;-70
2023/03/20 02:48:43;;;;;;;0.30;0.30;;;;;;;14.63;61.15;101941.59;4970325;28;20062;-70
2023/03/20 02:51:28;;;;;;;0.20;0.20;;;;;;;14.58;61.30;101938.75;4970144;28;20042;-70
2023/03/20 02:54:09;;;;;;;0.30;0.30;;;;;;;14.92;60.69;101924.59;4912243;29;20048;-70
2023/03/20 02:56:58;;;;;;;0.30;0.30;;;;;;;14.92;60.89;101929.19;4912824;29;20533;-70
2023/03/20 02:59:55;;;;;;;0.20;0.20;;;;;;;14.44;61.96;101944.53;4912553;29;20587;-70
2023/03/20 03:02:33;;;;;;;0.40;0.40;;;;;;;14.16;62.62;101942.25;4893673;29;20078;-69
2023/03/20 03:05:03;;;;;;;0.30;0.30;;;;;;;14.38;62.42;101940.00;4893361;29;20492;-70
2023/03/20 03:07:32;;;;;;;0.30;0.30;;;;;;;14.33;62.52;101937.97;4894122;29;20485;-70
2023/03/20 03:10:07;;;;;;;0.35;0.35;;;;;;;14.32;62.24;101930.91;4893858;29;20144;-70
2023/03/20 03:12:40;;;;;;;0.22;0.22;;;;;;;14.53;61.49;101932.34;4910534;29;20078;-70
2023/03/20 03:15:14;;;;;;;0.30;0.30;;;;;;;14.57;60.57;101922.75;4931311;29;20038;-69
2023/03/20 03:17:43;;;;;;;0.20;0.20;;;;;;;14.50;60.66;101917.41;4931478;29;20171;-70
2023/03/20 03:20:28;;;;;;;0.25;0.25;;;;;;;15.36;58.43;101919.84;4935459;29;20039;-69
2023/03/20 03:22:53;;;;;;;0.30;0.30;;;;;;;14.97;58.75;101915.81;4950545;28;20503;-70
2023/03/20 03:25:23;;;;;;;0.30;0.30;;;;;;;14.98;58.75;101908.53;4951021;29;20043;-69
2023/03/20 03:27:58;;;;;;;0.30;0.30;;;;;;;15.35;57.61;101901.97;4950253;28;20055;-69
2023/03/20 03:30:28;;;;;;;0.22;0.22;;;;;;;15.26;57.63;101898.75;4964613;28;20044;-68
2023/03/20 03:33:16;;;;;;;0.20;0.20;;;;;;;14.97;58.98;101891.44;5011265;28;20165;-69
2023/03/20 03:35:42;;;;;;;0.20;0.20;;;;;;;14.82;58.98;101897.25;5010599;28;20105;-69
2023/03/20 03:38:10;;;;;;;0.20;0.20;;;;;;;14.86;57.99;101890.34;5010666;28;20057;-69
2023/03/20 03:40:44;;;;;;;0.30;0.30;;;;;;;15.21;57.79;101889.66;5010962;28;20060;-69
2023/03/20 03:43:17;;;;;;;0.30;0.30;;;;;;;15.21;57.56;101879.66;5011633;28;20442;-71
2023/03/20 03:45:56;;;;;;;0.20;0.20;;;;;;;15.20;57.31;101863.63;5011031;28;20037;-70
2023/03/20 03:48:51;;;;;;;0.30;0.30;;;;;;;15.51;55.66;101861.50;5011049;28;20061;-68
2023/03/20 03:51:22;;;;;;;0.40;0.40;;;;;;;14.87;57.45;101873.06;4969267;28;20325;-69
2023/03/20 03:53:54;;;;;;;0.30;0.30;;;;;;;15.05;56.71;101861.38;4968741;28;20035;-68
2023/03/20 03:56:24;;;;;;;0.30;0.30;;;;;;;15.17;56.79;101858.69;4969236;28;20523;-68
2023/03/20 03:58:55;;;;;;;0.20;0.20;;;;;;;14.87;57.19;101864.94;4969396;28;20326;-68
2023/03/20 04:01:22;;;;;;;0.30;0.30;;;;;;;14.50;59.08;101867.91;4969362;28;20593;-68
2023/03/20 04:03:55;;;;;;;0.30;0.30;;;;;;;14.09;60.50;101879.34;4969013;28;20035;-68
2023/03/20 04:06:20;;;;;;;0.20;0.20;;;;;;;14.30;59.63;101876.22;4969276;28;20067;-69
2023/03/20 04:08:46;;;;;;;0.30;0.30;;;;;;;14.63;58.79;101871.28;4969098;28;20643;-68
2023/03/20 04:11:15;;;;;;;0.40;0.40;;;;;;;14.05;59.37;101880.84;4969019;28;20129;-69
2023/03/20 04:13:41;;;;;;;0.22;0.22;;;;;;;14.28;58.98;101869.38;4968956;28;20035;-68
2023/03/20 04:16:11;;;;;;;0.22;0.22;;;;;;;14.37;59.33;101868.06;4969369;28;20139;-69
2023/03/20 04:18:37;;;;;;;0.17;0.17;;;;;;;13.77;60.78;101867.78;4969083;28;20319;-68
2023/03/20 04:21:02;;;;;;;0.30;0.30;;;;;;;14.04;60.38;101860.25;4952460;28;20062;-69
2023/03/20 04:23:28;;;;;;;0.22;0.22;;;;;;;13.45;61.49;101868.84;4968731;28;20043;-68
2023/03/20 04:25:53;;;;;;;0.30;0.30;;;;;;;14.52;57.86;101863.09;4952761;28;20346;-69
2023/03/20 04:28:19;;;;;;;0.20;0.20;;;;;;;14.15;59.33;101862.22;4983037;28;20383;-69
2023/03/20 04:30:51;;;;;;;0.30;0.30;;;;;;;13.98;59.90;101853.03;5010390;28;20042;-70
2023/03/20 04:33:16;;;;;;;0.30;0.30;;;;;;;14.17;58.66;101846.59;5009303;28;20406;-69
2023/03/20 04:35:42;;;;;;;0.30;0.30;;;;;;;14.00;59.24;101853.63;5009468;28;20065;-69
2023/03/20 04:38:07;;;;;;;0.30;0.30;;;;;;;14.32;58.47;101860.63;5010558;28;20052;-69
2023/03/20 04:40:33;;;;;;;0.20;0.20;;;;;;;14.40;58.13;101860.31;5010655;28;20033;-68
2023/03/20 04:42:58;;;;;;;0.30;0.30;;;;;;;13.84;59.70;101871.25;5010828;28;20034;-69
2023/03/20 04:45:24;;;;;;;0.30;0.30;;;;;;;13.93;58.96;101869.94;5010378;28;20042;-69
2023/03/20 04:47:49;;;;;;;0.20;0.20;;;;;;;14.08;58.45;101865.00;5010347;28;20048;-69
2023/03/20 04:50:15;;;;;;;0.35;0.35;;;;;;;13.99;59.17;101858.19;5010244;28;20068;-70
2023/03/20 04:52:40;;;;;;;0.20;0.20;;;;;;;14.05;58.51;101859.22;5011809;28;20034;-67
2023/03/20 04:55:06;;;;;;;0.32;0.32;;;;;;;13.98;58.05;101863.84;5013324;28;20056;-69
2023/03/20 04:57:32;;;;;;;0.30;0.30;;;;;;;13.58;59.98;101849.84;5014184;28;20059;-70
2023/03/20 04:59:57;;;;;;;0.20;0.20;;;;;;;13.66;59.29;101851.47;5014164;28;20034;-68
2023/03/20 05:02:22;;;;;;;0.20;0.20;;;;;;;13.61;60.28;101849.41;5012157;28;20060;-68
2023/03/20 05:04:48;;;;;;;0.30;0.30;;;;;;;13.47;59.95;101852.44;5013457;28;20076;-69
2023/03/20 05:07:13;;;;;;;0.25;0.25;;;;;;;13.18;61.28;101856.59;5013987;28;20026;-68
2023/03/20 05:09:38;;;;;;;0.20;0.20;;;;;;;13.39;60.28;101868.91;5013628;28;20164;-69
2023/03/20 05:12:04;;;;;;;0.30;0.30;;;;;;;13.23;60.54;101859.44;5014044;28;20116;-69
2023/03/20 05:14:30;;;;;;;0.28;0.28;;;;;;;13.49;59.81;101855.75;5013902;28;20168;-68
2023/03/20 05:16:55;;;;;;;0.40;0.40;;;;;;;13.39;60.31;101856.22;5013749;28;20065;-68
2023/03/20 05:19:21;;;;;;;0.30;0.30;;;;;;;13.61;59.38;101854.81;5013988;28;20148;-69
2023/03/20 05:21:46;;;;;;;0.38;0.38;;;;;;;13.41;60.18;101853.31;5013399;28;20056;-69
2023/03/20 05:24:11;;;;;;;0.30;0.30;;;;;;;13.33;60.34;101859.81;5013970;28;20609;-69
2023/03/20 05:26:37;;;;;;;0.38;0.38;;;;;;;13.22;60.45;101857.81;5013729;28;20033;-69
2023/03/20 05:29:02;;;;;;;0.30;0.30;;;;;;;13.46;59.11;101861.59;5013595;28;20034;-69
2023/03/20 05:31:28;;;;;;;0.30;0.30;;;;;;;13.34;59.79;101864.16;5014031;28;20354;-69
2023/03/20 05:33:53;;;;;;;0.30;0.30;;;;;;;14.45;55.89;101857.75;5009648;28;20188;-69
2023/03/20 05:36:19;;;;;;;0.20;0.20;;;;;;;14.52;55.87;101852.28;4993612;28;20571;-69
2023/03/20 05:38:44;;;;;;;0.20;0.20;;;;;;;13.38;59.69;101856.47;4993831;28;20125;-69
2023/03/20 05:41:10;;;;;;;0.30;0.30;;;;;;;13.80;58.18;101856.50;5001591;28;20699;-69
2023/03/20 05:43:35;;;;;;;0.30;0.30;;;;;;;13.67;58.22;101853.94;5001696;28;20079;-68
2023/03/20 05:46:00;;;;;;;0.25;0.25;;;;;;;14.78;55.29;101858.16;5002879;28;20038;-68
2023/03/20 05:48:26;;;;;;;0.20;0.20;;;;;;;14.64;54.89;101855.88;5003704;28;20125;-68
2023/03/20 05:50:51;;;;;;;0.22;0.22;;;;;;;13.75;57.26;101859.06;5005845;28;20053;-69
2023/03/20 05:53:16;;;;;;;0.20;0.20;;;;;;;14.41;55.54;101853.84;5001607;28;20068;-69
2023/03/20 05:55:43;;;;;;;0.25;0.25;;;;;;;14.41;55.13;101861.94;5002452;28;20121;-69
2023/03/20 05:58:09;;;;;;;0.25;0.25;;;;;;;14.00;56.06;101875.25;5001775;28;20026;-68
2023/03/20 06:00:35;;;;;;;0.30;0.30;;;;;;;13.94;56.41;101866.16;5004139;28;20041;-70
2023/03/20 06:03:00;;;;;;;0.20;0.20;;;;;;;13.53;57.63;101865.91;5012242;28;20049;-69
2023/03/20 06:05:25;;;;;;;0.20;0.20;;;;;;;14.29;55.88;101869.16;5012411;28;20061;-70
2023/03/20 06:07:51;;;;;;;0.20;0.20;;;;;;;13.97;56.34;101860.28;5011556;28;20073;-68
2023/03/20 06:10:18;;;;;;;0.30;0.30;;;;;;;13.45;58.07;101865.31;5010203;28;20109;-69
2023/03/20 06:12:44;;;;;;;0.20;0.20;;;;;;;13.64;57.19;101864.38;5012442;28;20041;-69
2023/03/20 06:15:10;;;;;;;0.30;0.30;;;;;;;13.42;58.40;101863.06;5012592;28;20034;-69
2023/03/20 06:17:35;;;;;;;0.20;0.20;;;;;;;13.80;56.97;101864.63;5012488;28;20029;-68
2023/03/20 06:20:01;;;;;;;0.20;0.20;;;;;;;14.08;55.60;101873.09;5012452;28;20053;-69
2023/03/20 06:22:26;;;;;;;0.30;0.30;;;;;;;13.79;56.88;101871.09;5003905;28;20077;-69
2023/03/20 06:24:51;;;;;;;0.30;0.30;;;;;;;13.99;56.14;101879.81;4992937;28;20065;-70
2023/03/20 06:27:17;;;;;;;0.20;0.20;;;;;;;13.36;57.87;101875.59;5002618;28;20071;-70
2023/03/20 06:29:42;;;;;;;0.30;0.30;;;;;;;13.67;57.46;101877.41;5012112;28;20100;-69
2023/03/20 06:32:09;;;;;;;0.20;0.20;;;;;;;14.03;55.74;101885.63;5013032;28;20037;-69
2023/03/20 06:34:36;;;;;;;0.30;0.30;;;;;;;13.93;55.83;101883.44;5012878;28;20034;-68
2023/03/20 06:37:01;;;;;;;0.20;0.20;;;;;;;13.34;58.60;101884.94;5012920;28;20033;-70
2023/03/20 06:39:27;;;;;;;0.40;0.40;;;;;;;13.37;58.49;101877.22;5011981;28;20084;-69
2023/03/20 06:41:52;;;;;;;0.30;0.30;;;;;;;13.48;57.67;101879.25;5011984;28;20092;-70
2023/03/20 06:44:18;;;;;;;0.28;0.28;;;;;;;14.04;56.04;101879.16;5011849;28;20114;-69
2023/03/20 06:46:43;;;;;;;0.30;0.30;;;;;;;13.18;58.47;101879.03;5011987;28;20030;-71
2023/03/20 06:49:09;;;;;;;0.38;0.38;;;;;;;14.06;56.41;101877.91;5012638;28;20088;-70
2023/03/20 06:51:34;;;;;;;0.38;0.38;;;;;;;14.02;56.48;101882.09;5011378;28;20087;-70
2023/03/20 06:53:59;;;;;;;0.10;0.10;;;;;;;13.55;56.74;101882.69;5011348;28;20121;-70
2023/03/20 06:56:25;;;;;;;0.30;0.30;;;;;;;14.41;54.81;101882.75;5012014;28;20050;-69
2023/03/20 06:58:50;;;;;;;0.30;0.30;;;;;;;13.94;55.71;101885.06;5012029;28;20144;-70
2023/03/20 07:01:18;;;;;;;0.10;0.10;;;;;;;14.07;55.60;101890.34;5009799;28;20088;-69
2023/03/20 07:03:44;;;;;;;0.22;0.22;;;;;;;14.26;54.22;101890.38;5008390;28;20516;-69
2023/03/20 07:06:10;;;;;;;0.30;0.30;;;;;;;14.60;54.14;101887.94;5012360;28;20038;-70
2023/03/20 07:08:36;;;;;;;0.30;0.30;;;;;;;14.98;52.24;101892.28;5008659;28;20053;-69
2023/03/20 07:11:03;;;;;;;0.28;0.28;;;;;;;15.68;50.36;101888.78;5010340;28;20038;-69
2023/03/20 07:13:29;;;;;;;0.40;0.40;;;;;;;14.45;53.75;101892.06;5011802;28;20466;-69
2023/03/20 07:15:56;;;;;;;0.30;0.30;;;;;;;14.11;54.91;101885.34;5010518;28;20547;-69
2023/03/20 07:18:21;;;;;;;0.30;0.30;;;;;;;14.35;54.75;101881.78;5011724;28;20094;-70
2023/03/20 07:20:46;;;;;;;0.32;0.32;;;;;;;13.97;55.30;101886.53;5016236;28;20389;-69
2023/03/20 07:23:12;;;;;;;0.30;0.30;;;;;;;13.96;56.13;101882.97;5009742;28;20041;-70
2023/03/20 07:25:37;;;;;;;0.30;0.30;;;;;;;13.82;56.46;101891.41;5011073;28;20103;-69
2023/03/20 07:28:04;;;;;;;0.50;0.50;;;;;;;14.60;54.25;101889.84;5011809;28;20087;-70
2023/03/20 07:30:31;;;;;;;0.38;0.38;;;;;;;13.67;57.01;101894.47;5010774;28;20037;-70
2023/03/20 07:32:56;;;;;;;0.30;0.30;;;;;;;13.94;55.98;101892.34;5011062;28;20401;-69
2023/03/20 07:35:23;;;;;;;0.20;0.20;;;;;;;14.53;54.00;101889.91;5010408;28;20150;-69
2023/03/20 07:37:48;;;;;;;0.28;0.28;;;;;;;14.75;53.33;101888.41;5010626;28;20520;-68
2023/03/20 07:40:14;;;;;;;0.30;0.30;;;;;;;15.21;51.90;101887.78;5011462;28;20037;-69
2023/03/20 07:42:39;;;;;;;0.30;0.30;;;;;;;14.83;52.80;101893.50;5011040;28;20060;-69
2023/03/20 07:45:05;;;;;;;0.30;0.30;;;;;;;15.10;52.49;101885.84;5010524;28;20036;-68
2023/03/20 07:47:31;;;;;;;0.20;0.20;;;;;;;15.31;52.01;101892.66;5010537;28;20096;-68
2023/03/20 07:49:56;;;;;;;0.30;0.30;;;;;;;14.84;53.11;101889.72;5010611;28;20052;-68
2023/03/20 07:52:21;;;;;;;0.30;0.30;;;;;;;14.09;54.53;101898.25;5010862;28;20165;-70
2023/03/20 07:54:47;;;;;;;0.30;0.30;;;;;;;14.57;53.44;101891.09;5007296;28;20061;-69
2023/03/20 07:57:12;;;;;;;0.40;0.40;;;;;;;14.87;52.61;101889.28;5010965;28;20068;-70
2023/03/20 07:59:37;;;;;;;0.28;0.28;;;;;;;15.14;52.51;101894.34;5010081;28;20168;-69
2023/03/20 08:02:03;;;;;;;0.20;0.20;;;;;;;14.40;54.65;101894.63;5009775;28;20153;-69
2023/03/20 08:04:28;;;;;;;0.40;0.40;;;;;;;15.06;52.58;101894.66;5008917;28;20079;-70
2023/03/20 08:06:53;;;;;;;0.20;0.20;;;;;;;14.52;54.26;101892.84;5009720;28;20105;-69
2023/03/20 08:09:19;;;;;;;0.20;0.20;;;;;;;14.48;54.37;101899.75;5009822;28;20068;-69
2023/03/20 08:11:44;;;;;;;0.25;0.25;;;;;;;14.63;53.94;101894.78;5009713;28;20030;-69
2023/03/20 08:14:10;;;;;;;0.10;0.10;;;;;;;15.14;52.53;101892.47;5010222;28;20042;-70
2023/03/20 08:16:35;;;;;;;0.20;0.20;;;;;;;15.36;51.55;101895.47;5010288;28;20029;-70
2023/03/20 08:19:02;;;;;;;0.30;0.30;;;;;;;14.18;53.87;101894.22;5009976;28;20021;-69
2023/03/20 08:21:28;;;;;;;0.30;0.30;;;;;;;14.45;54.04;101895.63;5009503;28;20041;-70
2023/03/20 08:23:54;;;;;;;0.20;0.20;;;;;;;14.43;54.60;101889.59;5009844;28;20038;-70
2023/03/20 08:26:20;;;;;;;0.30;0.30;;;;;;;14.90;52.52;101896.94;5011329;28;20398;-69
2023/03/20 08:28:45;;;;;;;0.20;0.20;;;;;;;15.44;52.47;101895.19;5013904;28;20192;-69
2023/03/20 08:31:11;;;;;;;0.20;0.20;;;;;;;16.01;50.15;101893.63;5014373;28;20018;-69
2023/03/20 08:33:36;;;;;;;0.20;0.20;;;;;;;15.16;52.12;101892.22;5009192;28;20288;-69
2023/03/20 08:36:02;;;;;;;0.30;0.30;;;;;;;14.73;53.19;101903.19;5014224;28;20132;-69
2023/03/20 08:38:27;;;;;;;0.40;0.40;;;;;;;15.40;51.41;101905.63;5014236;28;20041;-69
2023/03/20 08:40:53;;;;;;;0.30;0.30;;;;;;;15.05;52.21;101899.25;5014335;28;20393;-70
2023/03/20 08:43:19;;;;;;;0.20;0.20;;;;;;;15.35;51.67;101900.06;5014725;28;20101;-70
2023/03/20 08:45:45;;;;;;;0.20;0.20;;;;;;;14.69;53.28;101908.25;5014176;28;20026;-69
2023/03/20 08:48:10;;;;;;;0.30;0.30;;;;;;;14.66;53.04;101907.88;5014558;28;20196;-70
2023/03/20 08:50:37;;;;;;;0.28;0.28;;;;;;;14.95;53.39;101897.09;5013899;28;20229;-70
2023/03/20 08:53:03;;;;;;;0.22;0.22;;;;;;;15.76;50.83;101907.41;5014088;28;20049;-72
2023/03/20 08:55:28;;;;;;;0.20;0.20;;;;;;;15.25;51.69;101904.41;5013952;28;20050;-69
2023/03/20 08:57:56;;;;;;;0.10;0.10;;;;;;;14.72;52.97;101894.25;5006491;28;20064;-69
2023/03/20 09:00:22;;;;;;;0.20;0.20;;;;;;;15.57;51.50;101901.22;4999306;28;20049;-69
2023/03/20 09:02:48;;;;;;;0.35;0.35;;;;;;;15.48;50.92;101894.50;4996737;28;20169;-70
2023/03/20 09:05:14;;;;;;;0.20;0.20;;;;;;;15.43;51.22;101893.56;5007507;28;20498;-69
2023/03/20 09:07:39;;;;;;;0.20;0.20;;;;;;;15.44;50.84;101887.91;5001267;28;20033;-69
2023/03/20 09:10:05;;;;;;;0.20;0.20;;;;;;;14.88;53.60;101900.91;4994596;28;20073;-70
2023/03/20 09:12:31;;;;;;;0.10;0.10;;;;;;;15.27;52.46;101900.38;4994073;28;20565;-69
2023/03/20 09:14:57;;;;;;;0.20;0.20;;;;;;;15.07;52.38;101883.63;4994878;28;20038;-69
2023/03/20 09:17:23;;;;;;;0.20;0.20;;;;;;;14.05;55.38;101894.34;5012172;28;20039;-69
2023/03/20 09:19:48;;;;;;;0.30;0.30;;;;;;;15.45;52.85;101891.44;5003450;28;20092;-70
2023/03/20 09:22:16;;;;;;;0.30;0.30;;;;;;;14.47;55.13;101896.22;5013670;28;20033;-69
2023/03/20 09:24:42;;;;;;;0.20;0.20;;;;;;;14.70;54.35;101890.13;5013459;28;20049;-70
2023/03/20 09:27:07;;;;;;;0.20;0.20;;;;;;;15.26;53.53;101890.63;5013348;28;20045;-70
2023/03/20 09:29:33;;;;;;;0.20;0.20;;;;;;;14.87;53.73;101889.28;5013463;28;20068;-69
2023/03/20 09:31:58;;;;;;;0.30;0.30;;;;;;;15.20;52.96;101888.84;5013414;28;20026;-69
2023/03/20 09:34:24;;;;;;;0.10;0.10;;;;;;;14.80;53.57;101893.94;5013693;28;20091;-69
2023/03/20 09:36:49;;;;;;;0.20;0.20;;;;;;;14.53;54.22;101891.78;5007087;28;20490;-70
2023/03/20 09:39:15;;;;;;;0.20;0.20;;;;;;;14.63;53.75;101878.56;5008658;28;20053;-68
2023/03/20 09:41:46;;;;;;;0.30;0.30;;;;;;;14.71;53.06;101891.78;5012894;28;20464;-70
2023/03/20 09:44:33;;;;;;;0.30;0.30;;;;;;;14.89;53.24;101891.75;5013176;28;20120;-69
2023/03/20 09:47:15;;;;;;;0.30;0.30;;;;;;;14.98;53.78;101892.28;5013047;28;20038;-69
2023/03/20 09:50:03;;;;;;;0.30;0.30;;;;;;;14.40;55.17;101897.34;5012904;28;20541;-69
2023/03/20 09:52:30;;;;;;;0.30;0.30;;;;;;;14.82;54.22;101894.53;5013218;28;20494;-71
2023/03/20 09:55:01;;;;;;;0.20;0.20;;;;;;;14.49;54.60;101899.53;5012782;28;20142;-70
2023/03/20 09:57:34;;;;;;;0.20;0.20;;;;;;;14.21;55.89;101909.16;5012872;28;20085;-69
2023/03/20 10:00:17;;;;;;;0.20;0.20;;;;;;;14.65;55.13;101898.09;5012712;28;20038;-69
2023/03/20 10:02:53;;;;;;;0.28;0.28;;;;;;;14.86;55.24;101901.16;5011405;28;20045;-69
2023/03/20 10:05:48;;;;;;;0.20;0.20;;;;;;;14.97;54.44;101910.41;5012751;28;20030;-70
2023/03/20 10:08:17;;;;;;;0.28;0.28;;;;;;;14.53;55.97;101916.13;5012907;28;20038;-70
2023/03/20 10:11:10;;;;;;;0.20;0.20;;;;;;;15.34;54.15;101911.13;5012716;28;20036;-68
2023/03/20 10:13:41;;;;;;;0.20;0.20;;;;;;;14.33;56.73;101902.81;5012676;28;20029;-69
2023/03/20 10:16:38;;;;;;;0.30;0.30;;;;;;;14.76;55.16;101900.06;5012795;28;20025;-70
2023/03/20 10:19:16;;;;;;;0.20;0.20;;;;;;;14.42;55.43;101884.44;4990425;28;20039;-69
2023/03/20 10:21:44;;;;;;;0.30;0.30;;;;;;;14.81;54.59;101881.25;4989951;28;20045;-68
2023/03/20 10:24:35;;;;;;;0.30;0.30;;;;;;;15.16;54.44;101884.09;4989938;28;20038;-70
2023/03/20 10:27:09;;;;;;;0.30;0.30;;;;;;;15.17;54.27;101883.06;4989981;28;20061;-70
2023/03/20 10:29:57;;;;;;;0.20;0.20;;;;;;;15.35;53.46;101870.28;4989957;28;20054;-69
2023/03/20 10:32:39;;;;;;;0.20;0.20;;;;;;;14.85;54.46;101882.44;4990020;28;20056;-70
2023/03/20 10:35:14;;;;;;;0.30;0.30;;;;;;;15.39;53.33;101871.47;4989648;28;20073;-69
2023/03/20 10:37:49;;;;;;;0.10;0.10;;;;;;;14.67;53.77;101883.28;4989784;28;20034;-69
2023/03/20 10:40:30;;;;;;;0.10;0.10;;;;;;;14.83;54.17;101879.97;4990210;28;20034;-70
2023/03/20 10:43:02;;;;;;;0.10;0.10;;;;;;;15.14;52.93;101872.69;4989932;28;20093;-69
2023/03/20 10:45:47;;;;;;;0.20;0.20;;;;;;;15.23;52.46;101880.28;4989826;28;20181;-69
2023/03/20 10:48:20;;;;;;;0.30;0.30;;;;;;;15.61;51.45;101883.44;4989677;28;20061;-69
2023/03/20 10:50:55;;;;;;;0.22;0.22;;;;;;;15.07;53.10;101893.59;4989427;28;20069;-70
2023/03/20 10:53:36;;;;;;;0.20;0.20;;;;;;;15.18;53.50;101884.69;4989395;28;20047;-70
2023/03/20 10:56:06;;;;;;;0.30;0.30;;;;;;;14.76;53.29;101895.44;5011708;28;20538;-68
2023/03/20 10:58:38;;;;;;;0.22;0.22;;;;;;;14.48;54.16;101888.94;5011913;28;20151;-69
2023/03/20 11:01:04;;;;;;;0.17;0.17;;;;;;;14.64;53.51;101885.63;5012111;28;20189;-69
2023/03/20 11:03:31;;;;;;;0.22;0.22;;;;;;;14.66;53.58;101886.22;5011796;28;20038;-70
2023/03/20 11:06:12;;;;;;;0.20;0.20;;;;;;;14.94;52.97;101892.72;5011751;28;20149;-69
2023/03/20 11:08:45;;;;;;;0.20;0.20;;;;;;;16.06;49.83;101889.16;5011553;28;20132;-70
2023/03/20 11:11:10;;;;;;;0.20;0.20;;;;;;;15.33;52.09;101898.66;5011725;28;20045;-68
2023/03/20 11:13:42;;;;;;;0.10;0.10;;;;;;;15.40;52.18;101883.13;5011547;28;20038;-67
2023/03/20 11:16:28;;;;;;;0.13;0.13;;;;;;;15.33;52.29;101885.94;5011718;28;20034;-68
2023/03/20 11:18:54;;;;;;;0.20;0.20;;;;;;;14.78;53.01;101879.00;5011436;28;20044;-70
2023/03/20 11:21:21;;;;;;;0.25;0.25;;;;;;;15.94;50.63;101882.09;5011250;28;20030;-69
2023/03/20 11:23:47;;;;;;;0.20;0.20;;;;;;;15.41;51.67;101890.22;5011223;28;20044;-70
2023/03/20 11:26:17;;;;;;;0.30;0.30;;;;;;;14.52;53.99;101876.63;5010677;28;20069;-69
2023/03/20 11:28:47;;;;;;;0.27;0.27;;;;;;;15.04;53.90;101869.69;5011349;28;20065;-70
2023/03/20 11:31:12;;;;;;;0.20;0.20;;;;;;;15.36;53.60;101877.34;5011770;28;20065;-69
2023/03/20 11:33:49;;;;;;;0.20;0.20;;;;;;;14.68;55.15;101873.31;5009876;28;20117;-70
2023/03/20 11:36:28;;;;;;;0.10;0.10;;;;;;;14.71;55.95;101879.09;4991341;28;20438;-69